Aviation Digital Data Service (ADDS)

Output produced by TAFs form (1901 UTC 19 September 2017)
found at http://www.aviationweather.gov/adds/tafs/
 
Forecast for: RJFT (KUMAMOTO(CIV/JAS, JP)
Text: TAF RJFT 191709Z 1918/2100 06003KT 8000 FEW015 SCT030
Forecast period: 1800 UTC 19 September 2017 to 0000 UTC 20 September 2017
Forecast type: FROM: standard forecast or significant change
Winds: from the ENE (60 degrees) at 3 MPH (3 knots; 1.6 m/s)
Visibility: 5 miles (8 km)
Clouds: few clouds at 1500 feet AGL
scattered clouds at 3000 feet AGL
Weather: no significant weather forecast for this period
Text: BECMG 2000/2002 23008KT
Forecast period: 0000 to 1200 UTC 20 September 2017
Forecast type: BECOMING: Conditions expected to become as follows by 0200 UTC 20 September 2017
Winds: from the SW (230 degrees) at 9 MPH (8 knots; 4.2 m/s)
Visibility: 5 miles (8 km)
Clouds: few clouds at 1500 feet AGL
scattered clouds at 3000 feet AGL
Weather: no significant weather forecast for this period
Text: BECMG 2012/2015 13003KT
Forecast period: 1200 UTC 20 September 2017 to 0000 UTC 21 September 2017
Forecast type: BECOMING: Conditions expected to become as follows by 1500 UTC 20 September 2017
Winds: from the SE (130 degrees) at 3 MPH (3 knots; 1.6 m/s)
Visibility: 5 miles (8 km)
Clouds: few clouds at 1500 feet AGL
scattered clouds at 3000 feet AGL
Weather: no significant weather forecast for this period